Hauptseite
METAR-TAF:

METAR-TAF

Flughäfen :

Flughafen Aberdeen International

Aberdeen, Schottland

Breite: 57-12N, Länge: 002-13W, Höhe: 65 m

Beobachtung

Neuester Wetterbericht von vor 16 Minuten, um 02:50 UTC
Wind 6 kt aus Südwest
Temperatur 10°C
Luftfeuchtigkeit 82%
Luftdruck 990 hPa
Sichtweite 10 km oder mehr

METAR: EGPD 060250Z AUTO 22006KT 9999 NCD 10/07 Q0990 NOSIG

Zeit: 03:06 (03:06 UTC)

Prognose

Neuester Wetterbericht von vor 3 Stunden und 10 Minuten, um 23:56 UTC
Gültige Prognose vom 06 um 00 UTC bis 06 um 24 UTC
Wind 9 kt aus West
Sichtweite 10 km oder mehr
Aufgelockert bewölkt in der Höhe von 3000 ft
Wahrscheinlichkeit 30% :
Zeitweise
vom 06 um 00 UTC bis 06 um 24 UTC
Sichtweite: 7000 m
Durchbrochene Bewölkung in der Höhe von 1400 ft
Regenschauer

TAF: EGPD 052356Z 0600/0624 27009KT 9999 SCT030 PROB30 TEMPO 0600/0624 7000 SHRA BKN014

Wetterbeobachtungen und Prognosen von mehr als 4000 Flughäfen (METAR und TAF Bericht).

Die verfügbaren Stationen werden durch gelbe und rote Markierungen auf der Karte dargestellt.

Führen Sie die Maus auf sie, um den Namen der Station zu sehen.

Darauf klicken, um die Beobachtung von Wetterbeobachtungen und Prognosen zu sehen.

Um die Karte zu ändern : klicken Sie auf den grünen Tasten mit einem schwarzen Kreuz Zum Vergrößern, auf den grünen Button mit einem Gedankenstrich zu verkleinern, oder auf die grünen Pfeile für benachbarte Karten.


METAR-TAF: